sensor_id;sensor_type;location;lat;lon;timestamp;pressure;altitude;pressure_sealevel;temperature;humidity
9676;BME280;4876;42.656;23.292;2023-03-04T00:01:28;94355.75;;;5.49;100.00
9676;BME280;4876;42.656;23.292;2023-03-04T00:03:55;94358.13;;;5.46;100.00
9676;BME280;4876;42.656;23.292;2023-03-04T00:06:22;94354.50;;;5.47;100.00
9676;BME280;4876;42.656;23.292;2023-03-04T00:08:49;94354.50;;;5.47;100.00
9676;BME280;4876;42.656;23.292;2023-03-04T00:11:15;94357.09;;;5.47;100.00
9676;BME280;4876;42.656;23.292;2023-03-04T00:13:42;94351.88;;;5.47;100.00
9676;BME280;4876;42.656;23.292;2023-03-04T00:16:10;94351.09;;;5.46;100.00
9676;BME280;4876;42.656;23.292;2023-03-04T00:18:37;94350.53;;;5.49;100.00
9676;BME280;4876;42.656;23.292;2023-03-04T00:21:04;94340.53;;;5.32;100.00
9676;BME280;4876;42.656;23.292;2023-03-04T00:23:31;94337.28;;;5.22;100.00
9676;BME280;4876;42.656;23.292;2023-03-04T00:25:58;94340.81;;;5.31;100.00
9676;BME280;4876;42.656;23.292;2023-03-04T00:28:24;94343.09;;;5.37;100.00
9676;BME280;4876;42.656;23.292;2023-03-04T00:30:52;94350.53;;;5.49;100.00
9676;BME280;4876;42.656;23.292;2023-03-04T00:33:20;94345.66;;;5.43;100.00
9676;BME280;4876;42.656;23.292;2023-03-04T00:35:47;94345.09;;;5.46;100.00
9676;BME280;4876;42.656;23.292;2023-03-04T00:38:13;94332.34;;;5.44;100.00
9676;BME280;4876;42.656;23.292;2023-03-04T00:40:40;94336.50;;;5.69;100.00
9676;BME280;4876;42.656;23.292;2023-03-04T00:43:07;94340.13;;;5.73;100.00
9676;BME280;4876;42.656;23.292;2023-03-04T00:45:34;94341.19;;;5.72;100.00
9676;BME280;4876;42.656;23.292;2023-03-04T00:48:00;94342.09;;;5.57;100.00
9676;BME280;4876;42.656;23.292;2023-03-04T00:50:28;94341.22;;;5.67;100.00
9676;BME280;4876;42.656;23.292;2023-03-04T00:52:55;94341.63;;;5.79;100.00
9676;BME280;4876;42.656;23.292;2023-03-04T00:55:22;94337.56;;;5.92;100.00
9676;BME280;4876;42.656;23.292;2023-03-04T00:57:49;94336.09;;;6.05;100.00
9676;BME280;4876;42.656;23.292;2023-03-04T01:00:16;94336.59;;;6.07;100.00
9676;BME280;4876;42.656;23.292;2023-03-04T01:02:43;94341.75;;;5.88;99.94
9676;BME280;4876;42.656;23.292;2023-03-04T01:05:10;94340.97;;;5.92;100.00
9676;BME280;4876;42.656;23.292;2023-03-04T01:07:38;94339.91;;;5.93;100.00
9676;BME280;4876;42.656;23.292;2023-03-04T01:10:09;94337.00;;;5.71;100.00
9676;BME280;4876;42.656;23.292;2023-03-04T01:12:36;94335.22;;;5.43;100.00
9676;BME280;4876;42.656;23.292;2023-03-04T01:15:05;94335.56;;;5.36;100.00
9676;BME280;4876;42.656;23.292;2023-03-04T01:17:32;94329.78;;;5.39;100.00
9676;BME280;4876;42.656;23.292;2023-03-04T01:19:59;94326.91;;;5.40;100.00
9676;BME280;4876;42.656;23.292;2023-03-04T01:22:26;94313.34;;;5.14;100.00
9676;BME280;4876;42.656;23.292;2023-03-04T01:24:54;94325.66;;;5.33;100.00
9676;BME280;4876;42.656;23.292;2023-03-04T01:27:21;94320.41;;;5.38;100.00
9676;BME280;4876;42.656;23.292;2023-03-04T01:29:47;94318.91;;;5.32;100.00
9676;BME280;4876;42.656;23.292;2023-03-04T01:32:14;94318.13;;;5.31;100.00
9676;BME280;4876;42.656;23.292;2023-03-04T01:34:41;94316.53;;;5.35;100.00
9676;BME280;4876;42.656;23.292;2023-03-04T01:37:08;94314.59;;;5.22;100.00
9676;BME280;4876;42.656;23.292;2023-03-04T01:39:35;94302.78;;;5.30;100.00
9676;BME280;4876;42.656;23.292;2023-03-04T01:42:03;94306.09;;;5.35;100.00
9676;BME280;4876;42.656;23.292;2023-03-04T01:44:30;94293.13;;;5.30;100.00
9676;BME280;4876;42.656;23.292;2023-03-04T01:46:57;94267.19;;;5.15;100.00
9676;BME280;4876;42.656;23.292;2023-03-04T01:49:24;94296.72;;;5.34;100.00
9676;BME280;4876;42.656;23.292;2023-03-04T01:51:52;94300.50;;;5.47;100.00
9676;BME280;4876;42.656;23.292;2023-03-04T01:54:21;94294.94;;;5.54;100.00
9676;BME280;4876;42.656;23.292;2023-03-04T01:56:50;94297.22;;;5.60;99.47
9676;BME280;4876;42.656;23.292;2023-03-04T01:59:20;94296.06;;;5.72;99.20
9676;BME280;4876;42.656;23.292;2023-03-04T02:01:48;94297.25;;;5.79;97.92
9676;BME280;4876;42.656;23.292;2023-03-04T02:04:17;94297.59;;;5.97;97.82
9676;BME280;4876;42.656;23.292;2023-03-04T02:06:46;94304.97;;;6.08;95.71
9676;BME280;4876;42.656;23.292;2023-03-04T02:09:14;94304.09;;;6.18;94.46
9676;BME280;4876;42.656;23.292;2023-03-04T02:11:42;94293.28;;;6.06;96.33
9676;BME280;4876;42.656;23.292;2023-03-04T02:14:10;94283.69;;;6.01;97.26
9676;BME280;4876;42.656;23.292;2023-03-04T02:16:38;94290.31;;;5.93;97.22
9676;BME280;4876;42.656;23.292;2023-03-04T02:19:13;94286.75;;;5.84;96.88
9676;BME280;4876;42.656;23.292;2023-03-04T02:21:42;94287.38;;;5.76;96.26
9676;BME280;4876;42.656;23.292;2023-03-04T02:24:13;94286.94;;;5.69;96.21
9676;BME280;4876;42.656;23.292;2023-03-04T02:26:43;94288.66;;;5.79;96.63
9676;BME280;4876;42.656;23.292;2023-03-04T02:29:12;94291.78;;;6.00;95.93
9676;BME280;4876;42.656;23.292;2023-03-04T02:31:41;94286.50;;;6.05;95.10
9676;BME280;4876;42.656;23.292;2023-03-04T02:34:11;94283.91;;;6.05;94.80
9676;BME280;4876;42.656;23.292;2023-03-04T02:36:39;94277.50;;;5.97;94.99
9676;BME280;4876;42.656;23.292;2023-03-04T02:39:11;94288.00;;;6.11;94.37
9676;BME280;4876;42.656;23.292;2023-03-04T02:41:38;94282.72;;;5.73;94.66
9676;BME280;4876;42.656;23.292;2023-03-04T02:44:15;94276.91;;;6.00;95.27
9676;BME280;4876;42.656;23.292;2023-03-04T02:46:42;94275.94;;;6.15;94.19
9676;BME280;4876;42.656;23.292;2023-03-04T02:49:09;94276.25;;;6.27;92.11
9676;BME280;4876;42.656;23.292;2023-03-04T02:51:36;94276.25;;;6.27;91.55
9676;BME280;4876;42.656;23.292;2023-03-04T02:54:03;94268.88;;;6.15;91.66
9676;BME280;4876;42.656;23.292;2023-03-04T02:56:30;94278.56;;;6.15;92.14
9676;BME280;4876;42.656;23.292;2023-03-04T02:58:57;94273.81;;;5.74;93.61
9676;BME280;4876;42.656;23.292;2023-03-04T03:01:28;94256.19;;;5.66;95.74
9676;BME280;4876;42.656;23.292;2023-03-04T03:03:55;94274.16;;;5.91;95.56
9676;BME280;4876;42.656;23.292;2023-03-04T03:06:22;94277.19;;;5.99;93.95
9676;BME280;4876;42.656;23.292;2023-03-04T03:08:48;94271.50;;;5.97;93.77
9676;BME280;4876;42.656;23.292;2023-03-04T03:11:15;94272.47;;;6.01;94.38
9676;BME280;4876;42.656;23.292;2023-03-04T03:13:42;94278.19;;;6.03;93.71
9676;BME280;4876;42.656;23.292;2023-03-04T03:16:09;94280.81;;;6.03;93.23
9676;BME280;4876;42.656;23.292;2023-03-04T03:18:37;94279.09;;;5.93;93.34
9676;BME280;4876;42.656;23.292;2023-03-04T03:21:04;94271.09;;;5.84;94.95
9676;BME280;4876;42.656;23.292;2023-03-04T03:23:32;94273.72;;;5.84;95.60
9676;BME280;4876;42.656;23.292;2023-03-04T03:25:59;94273.72;;;5.84;95.87
9676;BME280;4876;42.656;23.292;2023-03-04T03:28:26;94272.59;;;5.90;95.13
9676;BME280;4876;42.656;23.292;2023-03-04T03:30:53;94271.22;;;5.74;94.08
9676;BME280;4876;42.656;23.292;2023-03-04T03:33:20;94268.63;;;5.74;93.53
9676;BME280;4876;42.656;23.292;2023-03-04T03:35:48;94269.78;;;5.63;93.15
9676;BME280;4876;42.656;23.292;2023-03-04T03:38:15;94272.31;;;5.49;93.79
9676;BME280;4876;42.656;23.292;2023-03-04T03:40:41;94264.03;;;5.42;95.74
9676;BME280;4876;42.656;23.292;2023-03-04T03:43:08;94222.44;;;5.08;96.31
9676;BME280;4876;42.656;23.292;2023-03-04T03:45:35;94260.88;;;5.45;96.63
9676;BME280;4876;42.656;23.292;2023-03-04T03:48:03;94256.44;;;5.46;95.82
9676;BME280;4876;42.656;23.292;2023-03-04T03:50:30;94263.84;;;5.57;93.85
9676;BME280;4876;42.656;23.292;2023-03-04T03:52:59;94267.09;;;5.49;93.19
9676;BME280;4876;42.656;23.292;2023-03-04T03:55:25;94258.84;;;5.42;93.61
9676;BME280;4876;42.656;23.292;2023-03-04T03:57:52;94254.69;;;5.41;93.75
9676;BME280;4876;42.656;23.292;2023-03-04T04:00:19;94261.94;;;5.44;94.47
9676;BME280;4876;42.656;23.292;2023-03-04T04:02:46;94254.59;;;5.46;93.88
9676;BME280;4876;42.656;23.292;2023-03-04T04:05:13;94246.56;;;5.43;93.35
9676;BME280;4876;42.656;23.292;2023-03-04T04:07:40;94246.56;;;5.43;92.73
9676;BME280;4876;42.656;23.292;2023-03-04T04:10:10;94239.94;;;5.50;91.70
9676;BME280;4876;42.656;23.292;2023-03-04T04:12:37;94244.25;;;5.41;91.45
9676;BME280;4876;42.656;23.292;2023-03-04T04:15:05;94225.94;;;5.22;91.17
9676;BME280;4876;42.656;23.292;2023-03-04T04:17:32;94250.41;;;5.26;91.35
9676;BME280;4876;42.656;23.292;2023-03-04T04:19:59;94254.22;;;5.10;92.68
9676;BME280;4876;42.656;23.292;2023-03-04T04:22:25;94253.47;;;5.09;94.15
9676;BME280;4876;42.656;23.292;2023-03-04T04:24:52;94245.81;;;5.18;93.35
9676;BME280;4876;42.656;23.292;2023-03-04T04:27:20;94238.84;;;5.08;92.72
9676;BME280;4876;42.656;23.292;2023-03-04T04:29:48;94250.63;;;5.06;92.67
9676;BME280;4876;42.656;23.292;2023-03-04T04:32:14;94243.94;;;4.95;93.08
9676;BME280;4876;42.656;23.292;2023-03-04T04:34:41;94253.72;;;5.08;92.93
9676;BME280;4876;42.656;23.292;2023-03-04T04:37:08;94255.00;;;5.10;91.91
9676;BME280;4876;42.656;23.292;2023-03-04T04:39:35;94239.47;;;5.00;91.34
9676;BME280;4876;42.656;23.292;2023-03-04T04:42:02;94250.56;;;5.11;91.13
9676;BME280;4876;42.656;23.292;2023-03-04T04:44:30;94254.69;;;5.17;89.13
9676;BME280;4876;42.656;23.292;2023-03-04T04:46:57;94246.47;;;5.05;89.21
9676;BME280;4876;42.656;23.292;2023-03-04T04:49:24;94247.53;;;5.04;89.64
9676;BME280;4876;42.656;23.292;2023-03-04T04:51:50;94249.84;;;5.05;89.09
9676;BME280;4876;42.656;23.292;2023-03-04T04:54:17;94246.94;;;5.07;88.56
9676;BME280;4876;42.656;23.292;2023-03-04T04:56:44;94253.75;;;5.03;88.67
9676;BME280;4876;42.656;23.292;2023-03-04T04:59:11;94247.28;;;5.00;89.43
9676;BME280;4876;42.656;23.292;2023-03-04T05:01:39;94263.16;;;5.04;89.13
9676;BME280;4876;42.656;23.292;2023-03-04T05:04:06;94261.03;;;5.06;88.52
9676;BME280;4876;42.656;23.292;2023-03-04T05:06:32;94263.38;;;5.07;87.45
9676;BME280;4876;42.656;23.292;2023-03-04T05:08:59;94265.53;;;5.00;87.78
9676;BME280;4876;42.656;23.292;2023-03-04T05:11:26;94266.38;;;4.91;89.02
9676;BME280;4876;42.656;23.292;2023-03-04T05:13:53;94278.09;;;4.93;89.23
9676;BME280;4876;42.656;23.292;2023-03-04T05:16:20;94266.38;;;4.91;88.34
9676;BME280;4876;42.656;23.292;2023-03-04T05:18:48;94269.59;;;4.82;88.67
9676;BME280;4876;42.656;23.292;2023-03-04T05:21:15;94273.91;;;4.68;89.81
9676;BME280;4876;42.656;23.292;2023-03-04T05:23:43;94277.97;;;4.79;90.84
9676;BME280;4876;42.656;23.292;2023-03-04T05:26:12;94273.03;;;4.78;90.56
9676;BME280;4876;42.656;23.292;2023-03-04T05:28:39;94279.69;;;4.89;90.29
9676;BME280;4876;42.656;23.292;2023-03-04T05:31:06;94288.69;;;5.02;88.92
9676;BME280;4876;42.656;23.292;2023-03-04T05:33:33;94290.53;;;5.01;88.24
9676;BME280;4876;42.656;23.292;2023-03-04T05:36:02;94281.94;;;5.01;89.30
9676;BME280;4876;42.656;23.292;2023-03-04T05:38:29;94285.09;;;4.98;90.38
9676;BME280;4876;42.656;23.292;2023-03-04T05:40:57;94292.81;;;5.08;90.91
9676;BME280;4876;42.656;23.292;2023-03-04T05:43:24;94285.44;;;5.15;90.59
9676;BME280;4876;42.656;23.292;2023-03-04T05:45:52;94288.59;;;5.12;90.40
9676;BME280;4876;42.656;23.292;2023-03-04T05:48:19;94299.13;;;5.02;92.19
9676;BME280;4876;42.656;23.292;2023-03-04T05:50:46;94289.72;;;5.06;92.73
9676;BME280;4876;42.656;23.292;2023-03-04T05:53:14;94291.41;;;4.92;93.72
9676;BME280;4876;42.656;23.292;2023-03-04T05:55:45;94285.34;;;4.96;93.78
9676;BME280;4876;42.656;23.292;2023-03-04T05:58:12;94294.97;;;5.01;94.83
9676;BME280;4876;42.656;23.292;2023-03-04T06:00:39;94294.75;;;4.68;95.71
9676;BME280;4876;42.656;23.292;2023-03-04T06:03:06;94302.09;;;4.90;96.02
9676;BME280;4876;42.656;23.292;2023-03-04T06:05:33;94302.19;;;5.09;94.59
9676;BME280;4876;42.656;23.292;2023-03-04T06:07:59;94304.78;;;5.09;92.46
9676;BME280;4876;42.656;23.292;2023-03-04T06:10:27;94302.25;;;5.04;90.56
9676;BME280;4876;42.656;23.292;2023-03-04T06:12:54;94312.69;;;5.04;92.53
9676;BME280;4876;42.656;23.292;2023-03-04T06:15:21;94307.91;;;5.11;91.98
9676;BME280;4876;42.656;23.292;2023-03-04T06:17:47;94310.97;;;5.18;91.93
9676;BME280;4876;42.656;23.292;2023-03-04T06:20:14;94308.59;;;5.22;92.74
9676;BME280;4876;42.656;23.292;2023-03-04T06:22:41;94318.56;;;5.38;93.44
9676;BME280;4876;42.656;23.292;2023-03-04T06:25:08;94320.97;;;5.35;94.33
9676;BME280;4876;42.656;23.292;2023-03-04T06:27:36;94318.81;;;5.42;94.68
9676;BME280;4876;42.656;23.292;2023-03-04T06:30:04;94318.13;;;5.31;95.65
9676;BME280;4876;42.656;23.292;2023-03-04T06:32:31;94310.97;;;5.18;97.17
9676;BME280;4876;42.656;23.292;2023-03-04T06:34:58;94314.13;;;5.39;97.42
9676;BME280;4876;42.656;23.292;2023-03-04T06:37:24;94317.25;;;5.41;97.68
9676;BME280;4876;42.656;23.292;2023-03-04T06:39:51;94314.81;;;5.50;97.20
9676;BME280;4876;42.656;23.292;2023-03-04T06:42:18;94319.19;;;5.54;97.39
9676;BME280;4876;42.656;23.292;2023-03-04T06:44:47;94324.75;;;5.48;97.91
9676;BME280;4876;42.656;23.292;2023-03-04T06:47:14;94329.00;;;5.38;100.00
9676;BME280;4876;42.656;23.292;2023-03-04T06:49:41;94326.69;;;5.37;100.00
9676;BME280;4876;42.656;23.292;2023-03-04T06:52:07;94324.13;;;5.32;100.00
9676;BME280;4876;42.656;23.292;2023-03-04T06:54:35;94328.88;;;5.25;100.00
9676;BME280;4876;42.656;23.292;2023-03-04T06:57:02;94329.91;;;5.53;99.51
9676;BME280;4876;42.656;23.292;2023-03-04T06:59:29;94330.69;;;5.53;98.21
9676;BME280;4876;42.656;23.292;2023-03-04T07:01:57;94327.78;;;5.55;96.89
9676;BME280;4876;42.656;23.292;2023-03-04T07:04:24;94338.31;;;5.45;97.84
9676;BME280;4876;42.656;23.292;2023-03-04T07:06:51;94334.66;;;5.22;100.00
9676;BME280;4876;42.656;23.292;2023-03-04T07:09:17;94327.00;;;5.01;100.00
9676;BME280;4876;42.656;23.292;2023-03-04T07:11:44;94334.63;;;4.98;100.00
9676;BME280;4876;42.656;23.292;2023-03-04T07:14:11;94331.41;;;5.06;100.00
9676;BME280;4876;42.656;23.292;2023-03-04T07:16:38;94316.22;;;5.13;100.00
9676;BME280;4876;42.656;23.292;2023-03-04T07:19:06;94341.56;;;5.36;100.00
9676;BME280;4876;42.656;23.292;2023-03-04T07:21:33;94342.31;;;5.37;99.97
9676;BME280;4876;42.656;23.292;2023-03-04T07:24:00;94342.97;;;5.53;97.87
9676;BME280;4876;42.656;23.292;2023-03-04T07:26:27;94340.41;;;5.48;93.82
9676;BME280;4876;42.656;23.292;2023-03-04T07:28:54;94341.22;;;5.43;93.83
9676;BME280;4876;42.656;23.292;2023-03-04T07:31:24;94341.66;;;5.74;92.62
9676;BME280;4876;42.656;23.292;2023-03-04T07:33:56;94341.22;;;5.67;91.91
9676;BME280;4876;42.656;23.292;2023-03-04T07:36:25;94337.78;;;5.72;91.47
9676;BME280;4876;42.656;23.292;2023-03-04T07:38:52;94325.47;;;5.53;91.15
9676;BME280;4876;42.656;23.292;2023-03-04T07:41:21;94343.66;;;5.82;91.03
9676;BME280;4876;42.656;23.292;2023-03-04T07:43:49;94351.09;;;5.70;90.70
9676;BME280;4876;42.656;23.292;2023-03-04T07:46:16;94340.78;;;5.84;89.49
9676;BME280;4876;42.656;23.292;2023-03-04T07:48:43;94349.31;;;5.89;88.59
9676;BME280;4876;42.656;23.292;2023-03-04T07:51:12;94340.97;;;5.87;89.63
9676;BME280;4876;42.656;23.292;2023-03-04T07:53:41;94342.03;;;5.91;88.33
9676;BME280;4876;42.656;23.292;2023-03-04T07:56:11;94338.66;;;6.10;88.49
9676;BME280;4876;42.656;23.292;2023-03-04T07:58:38;94337.59;;;6.30;86.58
9676;BME280;4876;42.656;23.292;2023-03-04T08:01:09;94345.94;;;6.32;85.70
9676;BME280;4876;42.656;23.292;2023-03-04T08:03:36;94331.91;;;6.28;86.39
9676;BME280;4876;42.656;23.292;2023-03-04T08:06:04;94337.25;;;6.36;86.05
9676;BME280;4876;42.656;23.292;2023-03-04T08:08:31;94331.97;;;6.23;86.59
9676;BME280;4876;42.656;23.292;2023-03-04T08:11:03;94335.06;;;6.06;86.52
9676;BME280;4876;42.656;23.292;2023-03-04T08:13:30;94336.00;;;6.15;86.55
9676;BME280;4876;42.656;23.292;2023-03-04T08:15:56;94336.88;;;6.05;87.58
9676;BME280;4876;42.656;23.292;2023-03-04T08:18:24;94339.91;;;5.93;87.88
9676;BME280;4876;42.656;23.292;2023-03-04T08:20:51;94334.22;;;6.10;86.70
9676;BME280;4876;42.656;23.292;2023-03-04T08:23:18;94330.81;;;6.10;87.18
9676;BME280;4876;42.656;23.292;2023-03-04T08:25:45;94327.34;;;6.14;87.06
9676;BME280;4876;42.656;23.292;2023-03-04T08:28:13;94291.75;;;6.24;85.78
9676;BME280;4876;42.656;23.292;2023-03-04T08:30:41;94338.75;;;6.42;84.40
9676;BME280;4876;42.656;23.292;2023-03-04T08:33:08;94320.22;;;6.58;83.86
9676;BME280;4876;42.656;23.292;2023-03-04T08:35:36;94325.31;;;6.68;82.85
9676;BME280;4876;42.656;23.292;2023-03-04T08:38:04;94322.34;;;6.88;81.64
9676;BME280;4876;42.656;23.292;2023-03-04T08:40:31;94331.28;;;6.87;82.36
9676;BME280;4876;42.656;23.292;2023-03-04T08:42:58;94322.53;;;6.78;81.30
9676;BME280;4876;42.656;23.292;2023-03-04T08:45:26;94329.34;;;6.60;81.34
9676;BME280;4876;42.656;23.292;2023-03-04T08:47:53;94324.31;;;6.45;83.45
9676;BME280;4876;42.656;23.292;2023-03-04T08:50:20;94321.53;;;6.74;82.27
9676;BME280;4876;42.656;23.292;2023-03-04T08:52:47;94318.84;;;6.79;81.78
9676;BME280;4876;42.656;23.292;2023-03-04T08:55:13;94319.41;;;6.76;84.28
9676;BME280;4876;42.656;23.292;2023-03-04T08:57:40;94319.38;;;6.43;84.01
9676;BME280;4876;42.656;23.292;2023-03-04T09:00:08;94317.91;;;6.37;86.07
9676;BME280;4876;42.656;23.292;2023-03-04T09:02:36;94312.31;;;6.63;84.31
9676;BME280;4876;42.656;23.292;2023-03-04T09:05:04;94317.53;;;6.63;84.35
9676;BME280;4876;42.656;23.292;2023-03-04T09:07:31;94309.13;;;6.66;84.04
9676;BME280;4876;42.656;23.292;2023-03-04T09:09:58;94315.03;;;6.90;83.37
9676;BME280;4876;42.656;23.292;2023-03-04T09:12:25;94317.53;;;6.95;82.37
9676;BME280;4876;42.656;23.292;2023-03-04T09:14:51;94319.53;;;6.71;82.12
9676;BME280;4876;42.656;23.292;2023-03-04T09:17:18;94311.06;;;6.60;82.27
9676;BME280;4876;42.656;23.292;2023-03-04T09:19:46;94308.38;;;6.65;82.13
9676;BME280;4876;42.656;23.292;2023-03-04T09:22:13;94306.44;;;6.71;80.90
9676;BME280;4876;42.656;23.292;2023-03-04T09:24:40;94306.50;;;6.85;80.69
9676;BME280;4876;42.656;23.292;2023-03-04T09:27:08;94313.44;;;6.89;79.80
9676;BME280;4876;42.656;23.292;2023-03-04T09:29:35;94301.69;;;7.06;79.41
9676;BME280;4876;42.656;23.292;2023-03-04T09:32:01;94302.09;;;7.13;81.28
9676;BME280;4876;42.656;23.292;2023-03-04T09:34:28;94300.00;;;7.42;80.61
9676;BME280;4876;42.656;23.292;2023-03-04T09:36:56;94303.19;;;7.67;78.55
9676;BME280;4876;42.656;23.292;2023-03-04T09:39:23;94294.19;;;7.45;78.17
9676;BME280;4876;42.656;23.292;2023-03-04T09:41:52;94288.75;;;7.28;79.62
9676;BME280;4876;42.656;23.292;2023-03-04T09:44:23;94282.75;;;7.41;78.52
9676;BME280;4876;42.656;23.292;2023-03-04T09:46:51;94291.13;;;7.93;76.30
9676;BME280;4876;42.656;23.292;2023-03-04T09:49:23;94288.34;;;7.90;75.73
9676;BME280;4876;42.656;23.292;2023-03-04T09:51:55;94283.25;;;8.21;73.95
9676;BME280;4876;42.656;23.292;2023-03-04T09:54:35;94290.22;;;8.39;74.13
9676;BME280;4876;42.656;23.292;2023-03-04T09:57:20;94291.56;;;8.23;74.10
9676;BME280;4876;42.656;23.292;2023-03-04T09:59:52;94286.53;;;8.13;74.54
9676;BME280;4876;42.656;23.292;2023-03-04T10:02:26;94285.16;;;8.29;73.57
9676;BME280;4876;42.656;23.292;2023-03-04T10:04:59;94274.00;;;8.37;72.75
9676;BME280;4876;42.656;23.292;2023-03-04T10:07:30;94269.84;;;8.58;71.68
9676;BME280;4876;42.656;23.292;2023-03-04T10:10:03;94267.09;;;8.63;71.52
9676;BME280;4876;42.656;23.292;2023-03-04T10:12:32;94261.63;;;8.51;72.15
9676;BME280;4876;42.656;23.292;2023-03-04T10:15:04;94258.09;;;8.56;72.17
9676;BME280;4876;42.656;23.292;2023-03-04T10:17:35;94259.63;;;8.57;72.24
9676;BME280;4876;42.656;23.292;2023-03-04T10:20:04;94261.59;;;8.96;70.80
9676;BME280;4876;42.656;23.292;2023-03-04T10:22:35;94262.28;;;9.10;70.49
9676;BME280;4876;42.656;23.292;2023-03-04T10:25:16;94250.78;;;8.98;69.31
9676;BME280;4876;42.656;23.292;2023-03-04T10:27:49;94250.25;;;8.87;69.28
9676;BME280;4876;42.656;23.292;2023-03-04T10:30:25;94251.09;;;8.96;69.38
9676;BME280;4876;42.656;23.292;2023-03-04T10:32:55;94246.38;;;8.76;69.94
9676;BME280;4876;42.656;23.292;2023-03-04T10:35:26;94236.47;;;8.73;70.35
9676;BME280;4876;42.656;23.292;2023-03-04T10:38:01;94238.13;;;8.69;70.34
9676;BME280;4876;42.656;23.292;2023-03-04T10:40:36;94237.00;;;8.83;72.55
9676;BME280;4876;42.656;23.292;2023-03-04T10:43:03;94233.44;;;8.88;71.64
9676;BME280;4876;42.656;23.292;2023-03-04T10:45:37;94234.16;;;8.71;70.79
9676;BME280;4876;42.656;23.292;2023-03-04T10:48:05;94225.16;;;8.41;72.23
9676;BME280;4876;42.656;23.292;2023-03-04T10:50:32;94223.34;;;8.73;71.75
9676;BME280;4876;42.656;23.292;2023-03-04T10:52:59;94211.69;;;8.56;73.66
9676;BME280;4876;42.656;23.292;2023-03-04T10:55:28;94212.53;;;8.43;73.48
9676;BME280;4876;42.656;23.292;2023-03-04T10:58:02;94215.16;;;8.66;72.05
9676;BME280;4876;42.656;23.292;2023-03-04T11:00:30;94205.88;;;8.59;72.18
9676;BME280;4876;42.656;23.292;2023-03-04T11:03:20;94202.06;;;8.43;72.33
9676;BME280;4876;42.656;23.292;2023-03-04T11:05:48;94198.00;;;8.37;71.90
9676;BME280;4876;42.656;23.292;2023-03-04T11:08:16;94191.31;;;8.08;73.98
9676;BME280;4876;42.656;23.292;2023-03-04T11:10:44;94165.28;;;8.12;72.39
9676;BME280;4876;42.656;23.292;2023-03-04T11:13:16;94183.72;;;8.21;72.66
9676;BME280;4876;42.656;23.292;2023-03-04T11:15:51;94188.69;;;8.31;73.14
9676;BME280;4876;42.656;23.292;2023-03-04T11:18:21;94173.22;;;8.21;73.83
9676;BME280;4876;42.656;23.292;2023-03-04T11:20:51;94172.13;;;7.99;75.01
9676;BME280;4876;42.656;23.292;2023-03-04T11:23:25;94174.09;;;7.94;74.95
9676;BME280;4876;42.656;23.292;2023-03-04T11:25:58;94167.09;;;8.03;75.37
9676;BME280;4876;42.656;23.292;2023-03-04T11:28:33;94164.34;;;7.86;74.54
9676;BME280;4876;42.656;23.292;2023-03-04T11:31:09;94155.06;;;8.02;81.27
9676;BME280;4876;42.656;23.292;2023-03-04T11:33:42;94150.25;;;7.95;78.75
9676;BME280;4876;42.656;23.292;2023-03-04T11:36:22;94149.34;;;8.00;80.27
9676;BME280;4876;42.656;23.292;2023-03-04T11:38:53;94156.91;;;8.24;79.70
9676;BME280;4876;42.656;23.292;2023-03-04T11:41:25;94146.44;;;8.24;79.26
9676;BME280;4876;42.656;23.292;2023-03-04T11:43:57;94145.69;;;8.32;79.53
9676;BME280;4876;42.656;23.292;2023-03-04T11:49:45;94149.41;;;8.53;78.16
9676;BME280;4876;42.656;23.292;2023-03-04T11:52:21;94143.69;;;8.51;77.06
9676;BME280;4876;42.656;23.292;2023-03-04T11:55:11;94138.56;;;8.46;76.77
9676;BME280;4876;42.656;23.292;2023-03-04T11:57:51;94141.19;;;8.46;75.99
9676;BME280;4876;42.656;23.292;2023-03-04T12:00:32;94136.53;;;8.43;77.93
9676;BME280;4876;42.656;23.292;2023-03-04T12:03:23;94137.84;;;8.32;77.85
9676;BME280;4876;42.656;23.292;2023-03-04T12:05:59;94127.31;;;8.01;76.71
9676;BME280;4876;42.656;23.292;2023-03-04T12:08:35;94121.31;;;8.00;78.97
9676;BME280;4876;42.656;23.292;2023-03-04T12:11:08;94119.50;;;8.54;75.96
9676;BME280;4876;42.656;23.292;2023-03-04T12:16:45;94115.22;;;8.58;76.02
9676;BME280;4876;42.656;23.292;2023-03-04T12:19:25;94118.97;;;8.75;75.57
9676;BME280;4876;42.656;23.292;2023-03-04T12:22:05;94105.72;;;8.80;74.22
9676;BME280;4876;42.656;23.292;2023-03-04T12:24:42;94115.16;;;8.89;73.03
9676;BME280;4876;42.656;23.292;2023-03-04T12:27:20;94107.06;;;8.69;72.22
9676;BME280;4876;42.656;23.292;2023-03-04T12:29:55;94106.78;;;8.39;73.81
9676;BME280;4876;42.656;23.292;2023-03-04T12:32:33;94106.81;;;8.48;73.90
9676;BME280;4876;42.656;23.292;2023-03-04T12:35:23;94093.28;;;8.54;72.84
9676;BME280;4876;42.656;23.292;2023-03-04T12:38:09;94100.19;;;8.50;74.95
9676;BME280;4876;42.656;23.292;2023-03-04T12:40:46;94099.00;;;8.56;73.71
9676;BME280;4876;42.656;23.292;2023-03-04T12:43:36;94100.41;;;8.62;73.05
9676;BME280;4876;42.656;23.292;2023-03-04T12:46:14;94095.72;;;8.90;73.13
9676;BME280;4876;42.656;23.292;2023-03-04T12:48:53;94092.38;;;8.59;73.22
9676;BME280;4876;42.656;23.292;2023-03-04T12:51:30;94083.63;;;8.63;75.22
9676;BME280;4876;42.656;23.292;2023-03-04T12:54:07;94088.19;;;8.89;75.04
9676;BME280;4876;42.656;23.292;2023-03-04T12:56:40;94083.13;;;9.10;72.53
9676;BME280;4876;42.656;23.292;2023-03-04T12:59:13;94057.50;;;8.98;71.67
9676;BME280;4876;42.656;23.292;2023-03-04T13:01:46;94074.25;;;8.80;71.20
9676;BME280;4876;42.656;23.292;2023-03-04T13:04:21;94074.06;;;8.68;71.88
9676;BME280;4876;42.656;23.292;2023-03-04T13:07:01;94066.97;;;8.68;71.99
9676;BME280;4876;42.656;23.292;2023-03-04T13:09:36;94042.06;;;8.40;73.08
9676;BME280;4876;42.656;23.292;2023-03-04T13:12:13;94057.56;;;8.58;73.78
9676;BME280;4876;42.656;23.292;2023-03-04T13:17:49;94057.44;;;8.81;74.78
9676;BME280;4876;42.656;23.292;2023-03-04T13:20:21;94047.19;;;8.53;74.55
9676;BME280;4876;42.656;23.292;2023-03-04T13:22:55;94053.41;;;8.75;73.60
9676;BME280;4876;42.656;23.292;2023-03-04T13:25:34;94049.44;;;8.86;72.89
9676;BME280;4876;42.656;23.292;2023-03-04T13:28:14;94047.50;;;8.52;75.13
9676;BME280;4876;42.656;23.292;2023-03-04T13:31:16;94046.19;;;8.72;75.78
9676;BME280;4876;42.656;23.292;2023-03-04T13:33:51;94035.63;;;8.54;75.29
9676;BME280;4876;42.656;23.292;2023-03-04T13:36:33;94046.81;;;8.86;73.80
9676;BME280;4876;42.656;23.292;2023-03-04T13:39:03;94039.88;;;8.81;73.30
9676;BME280;4876;42.656;23.292;2023-03-04T13:41:48;94039.91;;;8.90;74.79